Time;durP1;ratioP1;P1;durP2;ratioP2;P2;SDS_P1;SDS_P2;PMS_P1;PMS_P2;Temp;Humidity;BMP_temperature;BMP_pressure;BME280_temperature;BME280_humidity;BME280_pressure;Samples;Min_cycle;Max_cycle;Signal;HPM_P1;HPM_P2
2021/09/21 00:02:21;;;;;;;5.97;4.50;;;;;;;9.82;100.00;102003.91;5010742;28;20224;-71
2021/09/21 00:04:46;;;;;;;5.83;5.10;;;;;;;9.83;100.00;102013.69;4993228;28;20258;-72
2021/09/21 00:07:15;;;;;;;5.77;5.20;;;;;;;9.86;100.00;102010.53;5009280;28;20241;-72
2021/09/21 00:09:45;;;;;;;5.20;4.70;;;;;;;9.95;100.00;102017.28;4993566;28;20200;-72
2021/09/21 00:12:15;;;;;;;6.33;5.20;;;;;;;9.96;100.00;102007.25;4996739;28;20274;-71
2021/09/21 00:14:41;;;;;;;6.50;5.50;;;;;;;9.98;100.00;102016.81;4994056;28;20204;-72
2021/09/21 00:17:09;;;;;;;6.43;5.20;;;;;;;9.85;100.00;102011.56;5014957;28;20768;-72
2021/09/21 00:19:35;;;;;;;5.53;5.00;;;;;;;9.85;100.00;102013.47;5010662;28;20588;-72
2021/09/21 00:22:03;;;;;;;6.87;4.50;;;;;;;9.75;100.00;102008.63;5027682;28;20295;-72
2021/09/21 00:24:28;;;;;;;7.20;4.30;;;;;;;9.92;100.00;102004.19;4999956;28;20220;-72
2021/09/21 00:26:55;;;;;;;5.43;4.37;;;;;;;9.92;100.00;102006.91;5014484;28;20230;-71
2021/09/21 00:29:21;;;;;;;4.93;4.43;;;;;;;9.88;100.00;102011.13;5016096;28;20279;-71
2021/09/21 00:31:56;;;;;;;5.77;4.50;;;;;;;9.81;100.00;102012.28;5015897;28;20246;-71
2021/09/21 00:34:27;;;;;;;5.77;4.90;;;;;;;9.64;100.00;102012.13;5016674;28;20219;-72
2021/09/21 00:36:55;;;;;;;6.83;4.77;;;;;;;9.32;100.00;102001.81;5001482;28;20654;-71
2021/09/21 00:39:21;;;;;;;5.50;5.00;;;;;;;9.40;100.00;102006.09;5012780;28;20192;-72
2021/09/21 00:41:46;;;;;;;5.37;4.30;;;;;;;9.22;100.00;102003.41;5015503;28;20212;-72
2021/09/21 00:44:17;;;;;;;5.30;4.80;;;;;;;9.13;100.00;102007.50;5012157;28;20759;-72
2021/09/21 00:46:43;;;;;;;5.90;4.70;;;;;;;9.11;100.00;102004.19;5015599;28;20697;-71
2021/09/21 00:49:11;;;;;;;5.27;4.73;;;;;;;8.94;100.00;102014.03;4999520;28;20191;-71
2021/09/21 00:51:36;;;;;;;5.47;4.47;;;;;;;9.01;100.00;102012.06;5006723;28;20223;-72
2021/09/21 00:54:02;;;;;;;6.57;4.70;;;;;;;9.02;100.00;102010.19;5016001;28;20579;-72
2021/09/21 00:56:28;;;;;;;5.03;4.53;;;;;;;9.02;100.00;102010.19;4995095;28;20283;-72
2021/09/21 00:58:56;;;;;;;7.70;5.17;;;;;;;9.03;100.00;102001.81;5028792;28;20192;-71
2021/09/21 01:01:24;;;;;;;5.17;4.47;;;;;;;9.04;100.00;101998.03;4995812;28;20221;-71
2021/09/21 01:03:50;;;;;;;5.60;5.00;;;;;;;8.94;100.00;102005.91;4996323;28;20208;-71
2021/09/21 01:06:17;;;;;;;5.40;4.60;;;;;;;8.96;100.00;102000.25;5017363;28;20232;-71
2021/09/21 01:08:48;;;;;;;5.00;4.03;;;;;;;8.81;100.00;102001.69;5004781;28;20185;-72
2021/09/21 01:11:17;;;;;;;6.07;4.90;;;;;;;8.79;100.00;101999.25;4998195;28;20220;-71
2021/09/21 01:13:48;;;;;;;5.77;4.73;;;;;;;8.74;100.00;101992.84;4996599;28;20208;-72
2021/09/21 01:16:16;;;;;;;5.30;4.80;;;;;;;8.72;100.00;101997.63;4984772;28;20350;-71
2021/09/21 01:18:44;;;;;;;5.07;4.37;;;;;;;8.81;100.00;101990.84;5015594;28;20219;-71
2021/09/21 01:21:12;;;;;;;5.80;4.70;;;;;;;8.79;100.00;101998.38;4995559;28;20216;-72
2021/09/21 01:23:47;;;;;;;5.50;4.43;;;;;;;8.77;100.00;102003.22;4995792;28;20212;-71
2021/09/21 01:26:15;;;;;;;5.63;4.80;;;;;;;8.59;100.00;101997.81;5004546;28;20270;-71
2021/09/21 01:28:41;;;;;;;7.07;4.70;;;;;;;8.79;100.00;101995.69;5006689;28;20216;-72
2021/09/21 01:31:11;;;;;;;7.07;5.10;;;;;;;8.81;100.00;102001.69;5014418;28;20701;-71
2021/09/21 01:33:39;;;;;;;6.03;4.70;;;;;;;8.82;100.00;101997.94;4999133;28;20235;-71
2021/09/21 01:36:05;;;;;;;4.80;4.30;;;;;;;8.68;100.00;101996.44;4996427;28;20714;-71
2021/09/21 01:38:33;;;;;;;5.10;4.27;;;;;;;8.81;100.00;101997.13;4996620;28;20180;-72
2021/09/21 01:41:03;;;;;;;4.77;3.83;;;;;;;8.88;100.00;101992.44;5032316;28;20224;-72
2021/09/21 01:43:30;;;;;;;6.37;4.47;;;;;;;9.02;100.00;101992.03;5015981;28;20208;-71
2021/09/21 01:45:58;;;;;;;4.33;3.93;;;;;;;8.82;100.00;102006.06;5015053;28;20215;-73
2021/09/21 01:48:24;;;;;;;5.60;4.27;;;;;;;9.08;100.00;102001.94;4997374;28;20250;-71
2021/09/21 01:51:02;;;;;;;5.23;4.00;;;;;;;8.99;100.00;102002.50;5012267;28;20758;-71
2021/09/21 01:58:54;;;;;;;5.37;4.03;;;;;;;8.80;100.00;102010.91;4997665;28;20184;-72
2021/09/21 02:01:26;;;;;;;6.27;4.17;;;;;;;8.67;100.00;101997.53;5011040;28;20225;-71
2021/09/21 02:03:53;;;;;;;4.73;4.17;;;;;;;8.56;100.00;102003.69;4998466;28;20219;-71
2021/09/21 02:06:22;;;;;;;4.93;3.47;;;;;;;8.63;100.00;102012.56;5014359;28;20224;-72
2021/09/21 02:08:48;;;;;;;4.60;3.73;;;;;;;8.59;100.00;102005.94;5031959;28;20665;-72
2021/09/21 02:11:13;;;;;;;4.90;3.87;;;;;;;8.50;100.00;102002.72;4997745;28;20220;-71
2021/09/21 02:13:39;;;;;;;5.97;4.00;;;;;;;8.48;100.00;101995.88;4994655;28;20706;-72
2021/09/21 02:16:05;;;;;;;5.63;4.10;;;;;;;8.55;100.00;101996.59;5010668;28;20217;-71
2021/09/21 02:18:30;;;;;;;4.57;4.17;;;;;;;8.39;100.00;101986.41;5025433;28;20930;-71
2021/09/21 02:20:58;;;;;;;4.80;4.30;;;;;;;8.33;100.00;101998.09;5030310;28;20220;-71
2021/09/21 02:23:23;;;;;;;4.70;4.03;;;;;;;8.40;100.00;101990.75;4994132;28;20701;-71
2021/09/21 02:25:54;;;;;;;4.60;4.20;;;;;;;8.51;100.00;101990.81;5012357;28;20212;-72
2021/09/21 02:28:19;;;;;;;9.27;4.50;;;;;;;8.65;100.00;101984.19;5005573;28;20704;-72
2021/09/21 02:30:48;;;;;;;5.40;4.37;;;;;;;8.77;100.00;101995.09;5013435;28;20239;-72
2021/09/21 02:33:16;;;;;;;5.00;4.07;;;;;;;8.73;100.00;101993.88;5020405;28;20323;-72
2021/09/21 02:35:44;;;;;;;5.47;4.40;;;;;;;8.72;100.00;101981.38;5010487;28;20224;-72
2021/09/21 02:38:09;;;;;;;6.30;4.00;;;;;;;8.82;100.00;101977.09;5003037;28;20188;-72
2021/09/21 02:40:37;;;;;;;4.80;3.97;;;;;;;9.04;100.00;101981.78;5014016;28;20220;-71
2021/09/21 02:43:05;;;;;;;4.70;4.07;;;;;;;9.03;100.00;101988.28;4997703;28;20681;-72
2021/09/21 02:45:33;;;;;;;4.20;3.80;;;;;;;8.93;100.00;101979.84;5030463;28;20220;-71
2021/09/21 02:48:01;;;;;;;4.73;4.03;;;;;;;8.92;100.00;101982.81;5027286;28;20172;-72
2021/09/21 02:50:29;;;;;;;6.43;5.83;;;;;;;8.80;100.00;101989.22;5013744;28;20224;-72
2021/09/21 02:52:57;;;;;;;4.33;3.77;;;;;;;9.08;100.00;101982.97;4997571;28;20180;-72
2021/09/21 02:55:25;;;;;;;4.57;3.67;;;;;;;9.07;100.00;101975.09;5005015;28;20271;-72
2021/09/21 02:57:50;;;;;;;4.53;3.87;;;;;;;9.17;100.00;101978.88;5001474;28;20173;-73
2021/09/21 03:00:22;;;;;;;7.40;3.40;;;;;;;9.12;100.00;101981.47;4977488;28;20197;-72
2021/09/21 03:02:50;;;;;;;4.60;4.10;;;;;;;9.36;100.00;101985.91;4999950;28;20195;-72
2021/09/21 03:05:22;;;;;;;6.03;4.10;;;;;;;9.23;100.00;101992.34;5008812;28;20208;-71
2021/09/21 03:07:53;;;;;;;6.10;4.17;;;;;;;9.41;100.00;101983.31;5012434;28;20691;-71
2021/09/21 03:18:28;;;;;;;5.33;4.00;;;;;;;9.37;100.00;102014.66;5022440;28;20192;-71
2021/09/21 03:20:54;;;;;;;6.53;4.13;;;;;;;9.33;100.00;102016.19;5002417;28;20818;-72
2021/09/21 03:23:19;;;;;;;4.87;4.10;;;;;;;9.20;100.00;102025.34;4993001;28;20199;-71
2021/09/21 03:25:47;;;;;;;6.63;4.83;;;;;;;9.34;100.00;102025.97;4999967;28;20224;-71
2021/09/21 03:28:15;;;;;;;5.90;4.37;;;;;;;9.37;100.00;102030.94;5002187;28;20712;-71
2021/09/21 03:30:43;;;;;;;6.93;4.40;;;;;;;9.48;100.00;102038.28;4977268;28;20225;-72
2021/09/21 03:33:11;;;;;;;4.80;4.30;;;;;;;9.51;100.00;102038.66;4964346;28;20246;-71
2021/09/21 03:35:38;;;;;;;4.57;3.77;;;;;;;9.44;100.00;102037.09;4996788;28;20709;-71
2021/09/21 03:38:06;;;;;;;5.93;4.17;;;;;;;9.39;100.00;102040.47;4997029;28;20713;-71
2021/09/21 03:40:34;;;;;;;5.87;4.13;;;;;;;9.43;100.00;102035.44;4978055;28;20230;-72
2021/09/21 03:43:00;;;;;;;5.63;4.37;;;;;;;9.33;100.00;102040.59;5011992;28;20227;-72
2021/09/21 03:45:28;;;;;;;6.67;4.03;;;;;;;9.29;100.00;102033.97;5011895;28;20865;-71
2021/09/21 03:47:56;;;;;;;5.73;4.30;;;;;;;9.31;100.00;102029.16;5016136;28;20195;-72
2021/09/21 03:50:24;;;;;;;5.03;4.40;;;;;;;9.59;100.00;102039.13;5011626;28;20616;-71
2021/09/21 03:52:51;;;;;;;5.13;4.63;;;;;;;9.66;100.00;102037.16;5021704;28;20189;-72
2021/09/21 03:55:21;;;;;;;4.83;4.33;;;;;;;9.76;100.00;102031.16;4991012;28;20209;-71
2021/09/21 03:57:47;;;;;;;5.07;4.33;;;;;;;9.80;100.00;102035.91;5023289;28;20655;-72
2021/09/21 04:00:18;;;;;;;4.53;4.07;;;;;;;9.78;100.00;102035.31;5015297;28;20180;-71
2021/09/21 04:02:48;;;;;;;7.47;4.33;;;;;;;9.70;100.00;102037.50;5014141;28;20202;-72
2021/09/21 04:05:13;;;;;;;6.67;4.07;;;;;;;9.71;100.00;102041.91;4995937;28;20213;-72
2021/09/21 04:07:41;;;;;;;4.83;4.33;;;;;;;9.82;100.00;102025.63;4995716;28;20184;-71
2021/09/21 04:10:10;;;;;;;5.73;4.33;;;;;;;9.77;100.00;102038.25;4995224;28;20284;-71
2021/09/21 04:12:35;;;;;;;6.60;4.10;;;;;;;9.95;100.00;102035.47;4995294;28;20273;-71
2021/09/21 04:15:04;;;;;;;5.50;4.30;;;;;;;9.82;100.00;102031.06;4990240;28;20723;-72
2021/09/21 04:17:32;;;;;;;4.63;4.13;;;;;;;9.80;100.00;102027.75;5014511;28;20706;-72
2021/09/21 04:19:59;;;;;;;6.67;4.00;;;;;;;10.01;100.00;102035.34;5005419;28;20670;-73
2021/09/21 04:22:27;;;;;;;5.23;4.10;;;;;;;9.86;100.00;102032.25;5012752;28;20228;-71
2021/09/21 04:24:54;;;;;;;4.33;3.60;;;;;;;9.99;100.00;102037.47;5021296;28;20291;-72
2021/09/21 04:27:24;;;;;;;5.57;4.07;;;;;;;9.97;100.00;102028.75;5024875;28;20304;-73
2021/09/21 04:29:54;;;;;;;4.50;3.70;;;;;;;10.06;100.00;102033.59;5013981;28;20263;-72
2021/09/21 04:32:20;;;;;;;5.00;3.90;;;;;;;9.99;100.00;102030.16;4980473;28;20229;-72
2021/09/21 04:34:49;;;;;;;4.10;3.70;;;;;;;10.02;100.00;102037.03;4999632;28;20219;-72
2021/09/21 04:37:17;;;;;;;4.60;4.13;;;;;;;10.03;100.00;102030.50;5012620;28;20308;-73
2021/09/21 04:39:42;;;;;;;6.03;4.37;;;;;;;9.83;100.00;102038.13;5019369;28;20182;-72
2021/09/21 04:42:10;;;;;;;4.67;4.20;;;;;;;9.99;100.00;102038.28;5031444;28;20250;-73
2021/09/21 04:44:36;;;;;;;6.47;5.37;;;;;;;10.09;100.00;102045.84;5018914;28;20204;-74
2021/09/21 04:47:03;;;;;;;5.33;4.83;;;;;;;10.15;100.00;102042.22;5018224;28;20223;-72
2021/09/21 04:49:28;;;;;;;7.20;5.90;;;;;;;10.22;100.00;102048.34;5002431;28;20231;-71
2021/09/21 04:51:54;;;;;;;4.77;4.10;;;;;;;10.29;100.00;102044.44;4996256;28;20283;-71
2021/09/21 04:54:19;;;;;;;7.27;4.83;;;;;;;10.31;100.00;102046.94;5014163;28;20204;-70
2021/09/21 04:56:45;;;;;;;4.87;4.10;;;;;;;10.18;100.00;102041.72;5023961;28;20275;-71
2021/09/21 04:59:10;;;;;;;6.20;4.60;;;;;;;10.33;100.00;102052.94;4994374;28;20212;-71
2021/09/21 05:01:36;;;;;;;6.00;4.80;;;;;;;10.30;100.00;102046.09;5027625;28;20223;-71
2021/09/21 05:04:04;;;;;;;5.73;4.50;;;;;;;10.49;100.00;102045.75;4998512;28;20209;-70
2021/09/21 05:06:32;;;;;;;5.70;4.90;;;;;;;10.58;100.00;102054.34;5030922;28;20735;-71
2021/09/21 05:08:58;;;;;;;5.93;5.20;;;;;;;10.52;100.00;102045.25;5031685;28;20212;-70
2021/09/21 05:11:26;;;;;;;6.00;4.33;;;;;;;10.42;100.00;102050.47;5015686;28;20232;-71
2021/09/21 05:13:56;;;;;;;5.53;4.07;;;;;;;10.29;100.00;102043.63;5032399;28;20205;-71
2021/09/21 05:16:21;;;;;;;4.17;3.73;;;;;;;10.25;100.00;102053.31;5012434;28;20248;-72
2021/09/21 05:18:47;;;;;;;6.10;3.97;;;;;;;10.40;100.00;102054.47;4996000;28;20273;-74
2021/09/21 05:21:13;;;;;;;4.60;3.97;;;;;;;10.39;100.00;102061.81;5012064;28;20279;-70
2021/09/21 05:23:39;;;;;;;4.97;4.47;;;;;;;10.42;100.00;102069.50;5003837;28;20212;-71
2021/09/21 05:26:09;;;;;;;5.17;4.10;;;;;;;10.46;100.00;102078.00;5029927;28;20697;-71
2021/09/21 05:28:35;;;;;;;7.23;3.90;;;;;;;10.53;100.00;102068.66;5023846;28;20597;-71
2021/09/21 05:31:01;;;;;;;5.23;4.67;;;;;;;10.62;100.00;102056.38;5018115;28;20224;-73
2021/09/21 05:33:39;;;;;;;5.77;4.50;;;;;;;10.34;100.00;102073.63;5016642;28;20184;-73
2021/09/21 05:36:05;;;;;;;5.53;4.60;;;;;;;10.30;100.00;102081.41;5006760;28;20212;-73
2021/09/21 05:38:33;;;;;;;6.10;4.30;;;;;;;10.37;100.00;102079.41;5017259;28;20249;-73
2021/09/21 05:40:59;;;;;;;4.70;4.20;;;;;;;10.40;100.00;102078.91;5001645;28;20220;-73
2021/09/21 05:43:24;;;;;;;5.00;4.17;;;;;;;10.32;100.00;102075.75;5013929;28;20188;-74
2021/09/21 05:45:52;;;;;;;5.20;4.63;;;;;;;10.47;100.00;102076.91;5008978;28;20227;-73
2021/09/21 05:48:18;;;;;;;5.03;4.53;;;;;;;10.43;100.00;102084.72;5004697;28;20246;-72
2021/09/21 05:50:43;;;;;;;5.33;4.33;;;;;;;10.50;100.00;102080.00;5009013;28;20225;-73
2021/09/21 05:53:13;;;;;;;5.53;4.50;;;;;;;10.60;100.00;102079.38;4995110;28;20658;-72
2021/09/21 05:55:39;;;;;;;4.73;4.27;;;;;;;10.65;100.00;102079.50;5012856;28;20232;-72
2021/09/21 05:58:04;;;;;;;5.37;4.67;;;;;;;10.52;100.00;102077.03;4999502;28;20181;-72
2021/09/21 06:00:33;;;;;;;5.50;4.40;;;;;;;10.69;100.00;102076.06;4996002;28;20306;-72
2021/09/21 06:03:01;;;;;;;5.40;4.33;;;;;;;10.49;100.00;102083.78;5016115;28;20180;-73
2021/09/21 06:05:28;;;;;;;5.63;4.27;;;;;;;10.64;100.00;102081.41;5014631;28;20228;-72
2021/09/21 06:07:54;;;;;;;4.90;4.50;;;;;;;10.80;100.00;102086.09;5014934;28;20191;-73
2021/09/21 06:10:21;;;;;;;4.80;4.30;;;;;;;10.68;100.00;102092.59;4997415;28;20468;-72
2021/09/21 06:12:49;;;;;;;7.10;4.80;;;;;;;10.94;100.00;102090.22;5029760;28;20283;-72
2021/09/21 06:15:19;;;;;;;7.77;4.90;;;;;;;11.02;100.00;102100.72;5014227;28;20275;-71
2021/09/21 06:17:45;;;;;;;5.50;4.83;;;;;;;10.87;100.00;102094.97;5027334;28;20216;-72
2021/09/21 06:20:11;;;;;;;5.80;5.10;;;;;;;11.13;100.00;102099.88;5009624;28;20221;-72
2021/09/21 06:22:37;;;;;;;5.50;4.83;;;;;;;11.24;100.00;102111.53;4993973;28;20295;-72
2021/09/21 06:25:11;;;;;;;6.17;4.90;;;;;;;11.42;100.00;102105.91;5014356;28;20211;-72
2021/09/21 06:27:39;;;;;;;5.70;5.03;;;;;;;11.50;100.00;102121.91;5011568;28;20674;-72
2021/09/21 06:30:13;;;;;;;5.10;4.60;;;;;;;11.42;100.00;102114.06;5014932;28;20279;-71
2021/09/21 06:32:39;;;;;;;5.13;4.60;;;;;;;11.50;100.00;102116.47;5000203;28;20177;-72
2021/09/21 06:35:06;;;;;;;5.27;4.77;;;;;;;11.59;100.00;102120.44;5010716;28;20600;-71
2021/09/21 06:37:34;;;;;;;6.03;4.63;;;;;;;11.56;100.00;102121.75;5012550;28;20247;-72
2021/09/21 06:40:00;;;;;;;5.37;4.70;;;;;;;11.39;100.00;102111.84;4985972;28;20686;-74
2021/09/21 06:42:33;;;;;;;7.07;4.80;;;;;;;11.33;100.00;102118.25;5006185;28;20208;-72
2021/09/21 06:45:01;;;;;;;5.10;4.60;;;;;;;11.65;100.00;102130.38;5013771;28;20200;-72
2021/09/21 06:47:26;;;;;;;4.97;4.53;;;;;;;11.44;100.00;102133.72;4997226;28;20630;-74
2021/09/21 06:49:54;;;;;;;5.33;4.30;;;;;;;11.49;100.00;102139.28;5030131;28;20666;-73
2021/09/21 06:52:20;;;;;;;5.53;4.30;;;;;;;11.56;100.00;102131.81;5013386;28;20319;-72
2021/09/21 06:54:45;;;;;;;6.93;4.70;;;;;;;11.85;100.00;102141.59;5031422;28;20207;-72
2021/09/21 06:57:14;;;;;;;5.60;4.57;;;;;;;11.75;100.00;102153.13;5017575;28;20216;-73
2021/09/21 06:59:39;;;;;;;4.73;4.27;;;;;;;12.04;100.00;102141.97;5026774;28;20258;-72
2021/09/21 07:02:08;;;;;;;7.37;4.73;;;;;;;12.07;100.00;102141.50;5027314;28;20248;-73
2021/09/21 07:04:33;;;;;;;5.40;4.90;;;;;;;12.11;100.00;102131.75;5014210;28;20279;-73
2021/09/21 07:06:59;;;;;;;6.40;4.90;;;;;;;12.15;100.00;102143.81;4978329;28;20261;-73
2021/09/21 07:09:25;;;;;;;6.40;5.10;;;;;;;12.39;100.00;102124.34;4993793;28;20188;-73
2021/09/21 07:11:50;;;;;;;5.73;4.50;;;;;;;12.37;100.00;102131.94;4979638;28;20776;-73
2021/09/21 07:14:17;;;;;;;6.50;4.87;;;;;;;12.38;100.00;102121.84;5029684;28;20230;-73
2021/09/21 07:16:46;;;;;;;5.07;4.57;;;;;;;12.33;100.00;102114.44;5013488;28;20228;-74
2021/09/21 07:19:11;;;;;;;6.17;4.40;;;;;;;12.73;100.00;102121.34;4996976;28;20184;-72
2021/09/21 07:21:37;;;;;;;6.80;5.20;;;;;;;12.87;100.00;102122.63;5015169;28;20223;-72
2021/09/21 07:24:05;;;;;;;5.13;4.63;;;;;;;12.89;100.00;102127.84;5017241;28;20204;-72
2021/09/21 07:26:35;;;;;;;5.37;4.87;;;;;;;12.99;100.00;102128.00;4993896;28;20224;-72
2021/09/21 07:29:05;;;;;;;5.23;4.60;;;;;;;13.10;100.00;102128.72;5015852;28;20835;-73
2021/09/21 07:31:31;;;;;;;5.70;4.83;;;;;;;13.28;100.00;102124.84;5032936;28;20228;-73
2021/09/21 07:33:59;;;;;;;6.00;4.73;;;;;;;13.31;100.00;102129.78;5016787;28;20223;-75
2021/09/21 07:36:27;;;;;;;5.07;4.53;;;;;;;13.16;100.00;102137.78;5016495;28;20217;-73
2021/09/21 07:38:57;;;;;;;8.50;4.80;;;;;;;13.12;100.00;102128.47;4984752;28;20188;-72
2021/09/21 07:41:22;;;;;;;5.27;4.40;;;;;;;13.11;100.00;102138.56;4999972;28;20248;-73
2021/09/21 07:43:48;;;;;;;5.63;4.80;;;;;;;13.18;100.00;102135.63;5006283;28;20723;-72
2021/09/21 07:46:14;;;;;;;5.50;4.63;;;;;;;13.21;100.00;102135.13;5019583;28;20223;-72
2021/09/21 07:48:42;;;;;;;6.33;4.53;;;;;;;13.29;100.00;102143.69;5024056;28;20195;-73
2021/09/21 07:51:10;;;;;;;5.03;4.53;;;;;;;13.37;100.00;102146.00;5000246;28;20598;-73
2021/09/21 07:53:37;;;;;;;5.30;4.80;;;;;;;13.28;100.00;102152.16;5003458;28;20704;-72
2021/09/21 07:56:08;;;;;;;5.37;4.87;;;;;;;13.55;100.00;102151.94;5030132;28;20373;-72
2021/09/21 07:58:33;;;;;;;5.33;4.80;;;;;;;13.78;100.00;102159.03;5008178;28;20247;-72
2021/09/21 08:01:05;;;;;;;6.17;5.07;;;;;;;13.89;100.00;102153.41;4999992;28;20217;-73
2021/09/21 08:03:31;;;;;;;5.70;5.10;;;;;;;13.86;100.00;102159.38;4976844;28;20274;-74
2021/09/21 08:05:57;;;;;;;5.73;5.20;;;;;;;14.18;100.00;102154.84;5019585;28;20755;-74
2021/09/21 08:08:25;;;;;;;7.20;4.87;;;;;;;14.23;100.00;102160.34;5016421;28;20192;-73
2021/09/21 08:10:53;;;;;;;5.73;5.00;;;;;;;14.20;100.00;102158.13;4983683;28;20240;-74
2021/09/21 08:13:19;;;;;;;6.23;5.27;;;;;;;14.04;100.00;102170.00;4989539;28;20188;-73
2021/09/21 08:15:45;;;;;;;5.87;4.83;;;;;;;14.15;100.00;102169.03;5008179;28;20221;-73
2021/09/21 08:18:15;;;;;;;5.60;4.83;;;;;;;14.13;100.00;102179.38;5004426;28;20200;-73
2021/09/21 08:20:41;;;;;;;5.23;4.20;;;;;;;14.24;100.00;102165.56;5015372;28;20221;-73
2021/09/21 08:23:06;;;;;;;5.67;5.13;;;;;;;14.52;100.00;102163.31;5022597;28;20177;-73
2021/09/21 08:25:32;;;;;;;5.67;5.07;;;;;;;14.43;100.00;102170.38;5004103;28;20220;-73
2021/09/21 08:28:00;;;;;;;5.50;5.00;;;;;;;14.57;100.00;102174.31;5032422;28;20529;-73
2021/09/21 08:30:26;;;;;;;5.37;4.87;;;;;;;14.49;100.00;102163.88;5019353;28;20285;-74
2021/09/21 08:32:52;;;;;;;5.73;4.90;;;;;;;14.47;100.00;102168.78;5003125;28;20275;-74
2021/09/21 08:35:17;;;;;;;5.87;4.80;;;;;;;14.36;100.00;102169.78;4999028;28;20229;-73
2021/09/21 08:37:43;;;;;;;6.50;5.00;;;;;;;14.41;100.00;102166.25;4999699;28;20196;-73
2021/09/21 08:40:13;;;;;;;7.00;4.80;;;;;;;14.54;100.00;102163.06;5034169;28;20203;-73
2021/09/21 08:42:39;;;;;;;6.00;5.23;;;;;;;14.57;100.00;102157.91;5036285;28;20263;-73
2021/09/21 08:45:05;;;;;;;6.93;4.97;;;;;;;14.67;100.00;102152.53;5032256;28;20200;-73
2021/09/21 08:47:35;;;;;;;6.10;4.60;;;;;;;14.78;100.00;102152.34;5021483;28;20208;-72
2021/09/21 08:50:03;;;;;;;6.28;4.57;;;;;;;14.78;100.00;102156.97;5001057;28;20208;-72
2021/09/21 08:52:29;;;;;;;5.47;4.90;;;;;;;14.86;100.00;102170.16;5016514;28;20314;-72
2021/09/21 08:55:00;;;;;;;5.72;3.83;;;;;;;14.79;100.00;102164.09;5016024;28;20678;-73
2021/09/21 08:57:26;;;;;;;5.85;4.15;;;;;;;14.80;100.00;102172.03;5023625;28;20701;-73
2021/09/21 08:59:56;;;;;;;6.72;3.85;;;;;;;14.85;100.00;102165.78;5008946;28;20187;-73
2021/09/21 09:02:23;;;;;;;4.47;3.77;;;;;;;14.64;100.00;102177.66;4999331;28;20311;-73
2021/09/21 09:05:17;;;;;;;3.80;3.45;;;;;;;14.75;100.00;102168.44;5016132;28;20739;-73
2021/09/21 09:07:55;;;;;;;4.65;3.60;;;;;;;14.58;100.00;102178.72;4998598;28;20224;-73
2021/09/21 09:10:22;;;;;;;3.70;3.40;;;;;;;14.65;100.00;102180.16;5020061;28;20200;-74
2021/09/21 09:12:48;;;;;;;6.03;3.33;;;;;;;14.73;100.00;102181.56;4999570;28;20187;-73
2021/09/21 09:15:21;;;;;;;4.43;4.00;;;;;;;14.77;100.00;102177.22;4996027;28;20204;-75
2021/09/21 09:17:55;;;;;;;3.97;3.67;;;;;;;14.87;100.00;102172.66;5012577;28;20192;-73
2021/09/21 09:20:37;;;;;;;4.95;4.00;;;;;;;14.89;100.00;102169.63;5019831;28;20254;-74
2021/09/21 09:23:06;;;;;;;4.20;2.85;;;;;;;14.89;100.00;102180.56;4999750;28;20176;-74
2021/09/21 09:25:47;;;;;;;3.75;3.33;;;;;;;15.16;100.00;102174.78;5008141;28;20228;-74
2021/09/21 09:28:20;;;;;;;4.10;3.60;;;;;;;15.15;100.00;102181.34;5003302;28;20185;-74
2021/09/21 09:30:51;;;;;;;4.20;3.40;;;;;;;15.49;100.00;102182.59;4995324;28;20232;-74
2021/09/21 09:33:17;;;;;;;3.70;3.10;;;;;;;15.62;100.00;102187.59;5012218;28;20232;-74
2021/09/21 09:35:45;;;;;;;3.35;3.15;;;;;;;15.77;100.00;102185.75;5027427;28;20220;-74
2021/09/21 09:38:16;;;;;;;3.50;3.20;;;;;;;15.66;99.05;102172.25;4999714;28;20185;-73
2021/09/21 09:40:43;;;;;;;4.57;3.03;;;;;;;15.74;100.00;102169.84;5010322;28;20371;-74
2021/09/21 09:43:15;;;;;;;4.35;3.28;;;;;;;15.93;96.28;102173.72;5015958;28;20188;-75
2021/09/21 09:45:43;;;;;;;3.67;3.10;;;;;;;15.96;96.24;102176.75;4995520;28;20706;-73
2021/09/21 09:48:12;;;;;;;3.28;2.90;;;;;;;15.93;96.06;102174.56;4995280;28;20200;-74
2021/09/21 09:50:42;;;;;;;3.22;2.83;;;;;;;15.57;95.56;102179.38;5007028;28;20255;-73
2021/09/21 09:53:23;;;;;;;3.95;3.20;;;;;;;15.68;92.37;102181.06;4999302;28;20189;-74
2021/09/21 09:56:00;;;;;;;4.50;3.15;;;;;;;15.62;94.47;102182.09;5008426;28;20636;-75
2021/09/21 09:58:26;;;;;;;4.20;3.25;;;;;;;15.96;95.85;102181.41;5022907;28;20199;-73
2021/09/21 10:00:56;;;;;;;4.65;2.97;;;;;;;16.13;91.16;102179.25;5018066;28;20217;-73
2021/09/21 10:03:22;;;;;;;3.47;3.17;;;;;;;16.10;92.09;102180.63;5021316;28;20203;-73
2021/09/21 10:05:50;;;;;;;3.20;2.90;;;;;;;15.96;94.34;102184.97;5013768;28;20220;-74
2021/09/21 10:08:16;;;;;;;3.92;3.10;;;;;;;16.12;93.62;102186.66;4998331;28;20193;-75
2021/09/21 10:10:42;;;;;;;4.22;3.20;;;;;;;15.85;92.61;102177.81;5010942;28;20237;-73
2021/09/21 10:13:12;;;;;;;3.80;3.40;;;;;;;15.87;93.58;102180.28;4962825;28;20197;-73
2021/09/21 10:15:41;;;;;;;3.95;3.47;;;;;;;15.86;92.82;102187.69;4978520;28;20316;-73
2021/09/21 10:18:16;;;;;;;6.18;3.40;;;;;;;16.04;90.79;102181.69;5011262;28;20561;-73
2021/09/21 10:20:44;;;;;;;5.25;3.45;;;;;;;15.87;90.84;102186.59;5015478;28;20220;-74
2021/09/21 10:23:10;;;;;;;3.65;3.30;;;;;;;15.98;92.19;102188.25;4995400;28;20200;-74
2021/09/21 10:25:41;;;;;;;4.93;3.50;;;;;;;16.06;88.89;102176.78;4990164;28;20248;-73
2021/09/21 10:28:19;;;;;;;4.32;3.70;;;;;;;15.86;88.71;102178.66;5006671;28;20184;-73
2021/09/21 10:31:12;;;;;;;5.75;3.17;;;;;;;15.95;90.72;102182.50;5013829;28;20220;-73
2021/09/21 10:33:38;;;;;;;7.00;3.03;;;;;;;16.05;89.35;102177.06;4997703;28;20594;-74
2021/09/21 10:36:15;;;;;;;3.45;2.80;;;;;;;15.97;88.58;102181.16;5030189;28;20222;-72
2021/09/21 10:38:51;;;;;;;4.03;3.20;;;;;;;16.01;88.15;102174.03;5015178;28;20179;-73
2021/09/21 10:41:17;;;;;;;3.80;3.00;;;;;;;16.04;87.23;102178.94;5002112;28;20236;-73
2021/09/21 10:43:44;;;;;;;3.88;3.28;;;;;;;15.95;86.94;102172.38;5011612;28;20207;-72
2021/09/21 10:46:17;;;;;;;3.65;2.70;;;;;;;16.26;86.68;102174.09;5000708;28;20593;-76
2021/09/21 10:48:46;;;;;;;3.33;3.03;;;;;;;16.39;84.11;102159.84;5011662;28;20666;-75
2021/09/21 10:51:16;;;;;;;3.17;2.83;;;;;;;16.40;81.51;102164.25;5019412;28;20219;-73
2021/09/21 10:53:44;;;;;;;3.33;3.03;;;;;;;16.23;81.30;102169.97;5014868;28;20200;-73
2021/09/21 10:56:11;;;;;;;4.75;2.95;;;;;;;15.96;84.26;102171.25;5002756;28;20259;-74
2021/09/21 10:58:37;;;;;;;5.32;3.15;;;;;;;16.31;85.00;102155.72;4995830;28;20184;-73
2021/09/21 11:01:03;;;;;;;3.25;2.97;;;;;;;16.42;83.87;102160.09;4993712;28;20711;-74
2021/09/21 11:03:29;;;;;;;3.92;2.75;;;;;;;16.39;84.67;102155.19;4994049;28;20300;-73
2021/09/21 11:05:56;;;;;;;3.83;3.05;;;;;;;16.38;84.92;102158.19;5013071;28;20315;-75
2021/09/21 11:08:32;;;;;;;3.20;2.90;;;;;;;16.44;86.06;102157.09;4997418;28;20188;-73
2021/09/21 11:11:00;;;;;;;3.13;2.78;;;;;;;16.56;84.18;102159.28;5029133;28;20701;-74
2021/09/21 11:13:31;;;;;;;3.47;3.10;;;;;;;16.63;84.46;102148.06;4982039;28;20184;-73
2021/09/21 11:15:58;;;;;;;3.50;3.20;;;;;;;16.60;85.43;102146.66;5010899;28;20222;-73
2021/09/21 11:18:26;;;;;;;5.10;3.30;;;;;;;16.26;86.73;102135.69;4993711;28;20184;-73
2021/09/21 11:21:03;;;;;;;3.95;3.10;;;;;;;16.67;84.84;102138.97;4979620;28;20216;-75
2021/09/21 11:23:37;;;;;;;4.00;3.60;;;;;;;16.43;85.84;102131.59;5013972;28;20212;-74
2021/09/21 11:26:06;;;;;;;4.70;3.53;;;;;;;16.56;85.71;102128.28;5000779;28;20216;-73
2021/09/21 11:28:33;;;;;;;4.32;3.00;;;;;;;16.56;88.49;102131.03;4999315;28;20208;-75
2021/09/21 11:30:59;;;;;;;3.65;3.13;;;;;;;16.98;86.23;102118.63;4993125;28;20240;-73
2021/09/21 11:33:32;;;;;;;4.82;3.03;;;;;;;16.92;84.21;102122.47;4993476;28;20182;-73
2021/09/21 11:36:08;;;;;;;4.10;2.78;;;;;;;17.18;84.80;102129.56;5012699;28;20220;-73
2021/09/21 11:38:40;;;;;;;4.05;3.65;;;;;;;17.04;84.83;102117.50;4993598;28;20267;-75
2021/09/21 11:41:06;;;;;;;3.78;3.22;;;;;;;17.21;81.93;102124.31;5012826;28;20231;-73